createdAt,value
2016-05-25T00:00:08.922Z,95.7
2016-05-25T00:00:18.938Z,95.79
2016-05-25T00:00:28.781Z,95.7
2016-05-25T00:00:38.938Z,95.7
2016-05-25T00:00:48.938Z,95.32
2016-05-25T00:00:58.941Z,95.7
2016-05-25T00:01:09.284Z,95.6
2016-05-25T00:01:18.800Z,95.79
2016-05-25T00:01:29.003Z,95.6
2016-05-25T00:01:38.816Z,95.6
2016-05-25T00:01:48.847Z,95.6
2016-05-25T00:01:58.990Z,95.79
2016-05-25T00:02:08.990Z,95.79
2016-05-25T00:02:18.990Z,95.79
2016-05-25T00:02:28.990Z,95.79
2016-05-25T00:02:38.990Z,95.6
2016-05-25T00:02:48.990Z,95.89
2016-05-25T00:02:59.008Z,95.6
2016-05-25T00:03:09.024Z,95.6
2016-05-25T00:03:19.008Z,95.51
2016-05-25T00:03:28.868Z,95.41
2016-05-25T00:03:39.024Z,95.51
2016-05-25T00:03:49.024Z,95.41
2016-05-25T00:03:59.027Z,95.41
2016-05-25T00:04:09.027Z,95.51
2016-05-25T00:04:19.042Z,95.6
2016-05-25T00:04:29.042Z,95.51
2016-05-25T00:04:39.042Z,95.51
2016-05-25T00:04:49.042Z,95.51
2016-05-25T00:04:59.061Z,95.41
2016-05-25T00:05:09.061Z,95.41
2016-05-25T00:05:19.061Z,95.51
2016-05-25T00:05:29.077Z,95.51
2016-05-25T00:05:39.077Z,95.51
2016-05-25T00:05:49.077Z,95.41
2016-05-25T00:05:59.095Z,95.6
2016-05-25T00:06:09.095Z,95.51
2016-05-25T00:06:19.095Z,95.6
2016-05-25T00:06:29.127Z,95.41
2016-05-25T00:06:39.095Z,95.6
2016-05-25T00:06:49.111Z,95.7
2016-05-25T00:06:59.113Z,95.41
2016-05-25T00:07:09.113Z,95.7
2016-05-25T00:07:19.144Z,95.41
2016-05-25T00:07:29.129Z,95.79
2016-05-25T00:07:39.129Z,95.51
2016-05-25T00:07:49.144Z,95.6
2016-05-25T00:07:59.132Z,95.51
2016-05-25T00:08:09.147Z,95.32
2016-05-25T00:08:19.163Z,95.6
2016-05-25T00:08:29.147Z,95.51
2016-05-25T00:08:39.163Z,95.79
2016-05-25T00:08:49.163Z,95.32
2016-05-25T00:08:59.166Z,95.51
2016-05-25T00:09:09.181Z,95.41
2016-05-25T00:09:19.181Z,95.7
2016-05-25T00:09:29.025Z,95.41
2016-05-25T00:09:39.181Z,95.51
2016-05-25T00:09:49.197Z,95.79
2016-05-25T00:09:59.199Z,95.89
2016-05-25T00:10:09.199Z,95.7
2016-05-25T00:10:19.215Z,95.51
2016-05-25T00:10:29.215Z,95.51
2016-05-25T00:10:39.215Z,95.22
2016-05-25T00:10:49.215Z,95.12
2016-05-25T00:10:59.218Z,95.03
2016-05-25T00:11:09.233Z,95.12
2016-05-25T00:11:19.233Z,95.6
2016-05-25T00:11:29.233Z,95.51
2016-05-25T00:11:39.233Z,95.32
2016-05-25T00:11:49.249Z,95.32
2016-05-25T00:11:59.251Z,95.22
2016-05-25T00:12:09.267Z,94.93
2016-05-25T00:12:19.267Z,95.12
2016-05-25T00:12:29.282Z,95.22
2016-05-25T00:12:39.126Z,95.22
2016-05-25T00:12:49.282Z,95.32
2016-05-25T00:12:59.129Z,95.22
2016-05-25T00:13:09.285Z,95.12
2016-05-25T00:13:19.285Z,95.32
2016-05-25T00:13:29.285Z,95.03
2016-05-25T00:13:39.301Z,95.32
2016-05-25T00:13:49.301Z,95.32
2016-05-25T00:13:59.304Z,95.22
2016-05-25T00:14:09.304Z,95.51
2016-05-25T00:14:19.304Z,95.41
2016-05-25T00:14:29.179Z,95.51
2016-05-25T00:14:39.319Z,95.12
2016-05-25T00:14:49.319Z,95.32
2016-05-25T00:14:59.337Z,95.22
2016-05-25T00:15:09.337Z,95.51
2016-05-25T00:15:19.337Z,95.32
2016-05-25T00:15:29.337Z,95.51
2016-05-25T00:15:39.353Z,95.12
2016-05-25T00:15:49.368Z,95.51
2016-05-25T00:15:59.357Z,95.51
2016-05-25T00:16:09.482Z,95.51
2016-05-25T00:16:19.497Z,95.51
2016-05-25T00:16:29.372Z,95.22
2016-05-25T00:16:39.388Z,95.41
2016-05-25T00:16:49.388Z,95.41
2016-05-25T00:16:59.234Z,95.51
2016-05-25T00:17:09.390Z,95.51
2016-05-25T00:17:19.390Z,94.93
2016-05-25T00:17:29.390Z,95.32
2016-05-25T00:17:39.406Z,94.93
2016-05-25T00:17:49.406Z,95.22
2016-05-25T00:17:59.424Z,95.12
2016-05-25T00:18:09.424Z,95.22
2016-05-25T00:18:19.424Z,95.32
2016-05-25T00:18:29.440Z,95.32
2016-05-25T00:18:39.424Z,95.12
2016-05-25T00:18:49.440Z,95.32
2016-05-25T00:18:59.661Z,95.32
2016-05-25T00:19:09.442Z,95.32
2016-05-25T00:19:19.442Z,95.12
2016-05-25T00:19:29.457Z,95.22
2016-05-25T00:19:39.457Z,95.22
2016-05-25T00:19:49.457Z,95.12
2016-05-25T00:19:59.476Z,95.51
2016-05-25T00:20:09.476Z,95.51
2016-05-25T00:20:19.476Z,95.51
2016-05-25T00:20:29.492Z,95.51
2016-05-25T00:20:39.476Z,95.51
2016-05-25T00:20:49.492Z,95.41
2016-05-25T00:20:59.495Z,95.51
2016-05-25T00:21:09.495Z,95.32
2016-05-25T00:21:19.510Z,95.22
2016-05-25T00:21:29.354Z,95.32
2016-05-25T00:21:39.510Z,95.12
2016-05-25T00:21:49.510Z,95.51
2016-05-25T00:21:59.528Z,94.93
2016-05-25T00:22:09.528Z,95.32
2016-05-25T00:22:19.528Z,95.51
2016-05-25T00:22:29.544Z,95.41
2016-05-25T00:22:39.544Z,95.12
2016-05-25T00:22:49.387Z,95.03
2016-05-25T00:22:59.547Z,95.22
2016-05-25T00:23:09.562Z,95.41
2016-05-25T00:23:19.562Z,95.03
2016-05-25T00:23:29.562Z,95.12
2016-05-25T00:23:39.562Z,95.12
2016-05-25T00:23:49.578Z,95.32
2016-05-25T00:23:59.581Z,95.12
2016-05-25T00:24:09.581Z,95.32
2016-05-25T00:24:19.581Z,94.84
2016-05-25T00:24:29.596Z,95.51
2016-05-25T00:24:39.596Z,95.32
2016-05-25T00:24:49.596Z,95.03
2016-05-25T00:24:59.615Z,95.51
2016-05-25T00:25:09.615Z,95.03
2016-05-25T00:25:19.615Z,94.93
2016-05-25T00:25:29.615Z,95.03
2016-05-25T00:25:39.631Z,95.7
2016-05-25T00:25:49.615Z,95.22
2016-05-25T00:25:59.633Z,95.12
2016-05-25T00:26:09.648Z,95.03
2016-05-25T00:26:19.476Z,95.12
2016-05-25T00:26:29.648Z,95.32
2016-05-25T00:26:39.664Z,95.51
2016-05-25T00:26:49.664Z,95.6
2016-05-25T00:26:59.683Z,95.03
2016-05-25T00:27:09.667Z,95.79
2016-05-25T00:27:19.683Z,95.12
2016-05-25T00:27:29.683Z,95.03
2016-05-25T00:27:39.683Z,95.03
2016-05-25T00:27:49.698Z,96.08
2016-05-25T00:27:59.686Z,95.6
2016-05-25T00:28:09.701Z,95.51
2016-05-25T00:28:19.701Z,95.51
2016-05-25T00:28:29.701Z,95.32
2016-05-25T00:28:39.701Z,95.51
2016-05-25T00:28:49.701Z,95.12
2016-05-25T00:28:59.579Z,95.51
2016-05-25T00:29:09.720Z,95.41
2016-05-25T00:29:19.720Z,95.32
2016-05-25T00:29:29.735Z,95.79
2016-05-25T00:29:39.735Z,95.12
2016-05-25T00:29:49.735Z,95.32
2016-05-25T00:29:59.753Z,94.93
2016-05-25T00:30:09.753Z,95.51
2016-05-25T00:30:19.753Z,95.03
2016-05-25T00:30:29.769Z,95.12
2016-05-25T00:30:39.612Z,95.12
2016-05-25T00:30:49.769Z,95.03
2016-05-25T00:30:59.772Z,95.22
2016-05-25T00:31:09.787Z,95.51
2016-05-25T00:31:19.787Z,94.93
2016-05-25T00:31:29.787Z,95.32
2016-05-25T00:31:40.412Z,95.32
2016-05-25T00:31:50.365Z,94.93
2016-05-25T00:31:59.930Z,95.89
2016-05-25T00:32:09.805Z,95.51
2016-05-25T00:32:19.805Z,95.6
2016-05-25T00:32:29.664Z,95.51
2016-05-25T00:32:39.821Z,95.51
2016-05-25T00:32:49.821Z,95.6
2016-05-25T00:32:59.683Z,95.51
2016-05-25T00:33:09.824Z,94.93
2016-05-25T00:33:19.839Z,94.93
2016-05-25T00:33:29.699Z,95.79
2016-05-25T00:33:39.839Z,95.98
2016-05-25T00:33:49.855Z,95.32
2016-05-25T00:33:59.858Z,95.32
2016-05-25T00:34:09.858Z,95.22
2016-05-25T00:34:19.858Z,95.41
2016-05-25T00:34:29.873Z,94.93
2016-05-25T00:34:39.873Z,94.93
2016-05-25T00:34:49.873Z,95.51
2016-05-25T00:34:59.891Z,95.89
2016-05-25T00:35:09.891Z,95.7
2016-05-25T00:35:19.891Z,95.79
2016-05-25T00:35:29.891Z,94.93
2016-05-25T00:35:39.891Z,94.93
2016-05-25T00:35:49.891Z,95.41
2016-05-25T00:35:59.753Z,94.93
2016-05-25T00:36:09.925Z,95.32
2016-05-25T00:36:19.753Z,95.6
2016-05-25T00:36:29.925Z,95.6
2016-05-25T00:36:39.925Z,95.98
2016-05-25T00:36:49.941Z,95.32
2016-05-25T00:36:59.943Z,94.93
2016-05-25T00:37:09.927Z,95.7
2016-05-25T00:37:19.943Z,95.7
2016-05-25T00:37:29.943Z,95.32
2016-05-25T00:37:39.943Z,95.51
2016-05-25T00:37:49.959Z,95.6
2016-05-25T00:37:59.963Z,95.6
2016-05-25T00:38:09.822Z,95.6
2016-05-25T00:38:19.806Z,95.6
2016-05-25T00:38:29.978Z,95.6
2016-05-25T00:38:39.978Z,95.6
2016-05-25T00:38:49.978Z,95.32
2016-05-25T00:38:59.841Z,95.79
2016-05-25T00:39:09.856Z,95.32
2016-05-25T00:39:19.997Z,95.51
2016-05-25T00:39:29.856Z,95.32
2016-05-25T00:39:40.012Z,95.6
2016-05-25T00:39:50.012Z,95.7
2016-05-25T00:40:00.014Z,95.51
2016-05-25T00:40:10.014Z,95.32
2016-05-25T00:40:20.030Z,95.41
2016-05-25T00:40:29.874Z,95.79
2016-05-25T00:40:39.889Z,95.32
2016-05-25T00:40:50.030Z,95.7
2016-05-25T00:41:00.049Z,95.6
2016-05-25T00:41:10.049Z,95.89
2016-05-25T00:41:20.064Z,95.32
2016-05-25T00:41:30.049Z,95.51
2016-05-25T00:41:40.064Z,95.51
2016-05-25T00:41:50.064Z,95.89
2016-05-25T00:41:59.910Z,95.51
2016-05-25T00:42:10.082Z,95.51
2016-05-25T00:42:19.926Z,95.51
2016-05-25T00:42:30.082Z,95.6
2016-05-25T00:42:40.098Z,95.79
2016-05-25T00:42:50.098Z,95.51
2016-05-25T00:43:00.101Z,95.51
2016-05-25T00:43:10.101Z,95.51
2016-05-25T00:43:19.960Z,95.51
2016-05-25T00:43:30.101Z,95.51
2016-05-25T00:43:40.116Z,95.51
2016-05-25T00:43:50.116Z,95.41
2016-05-25T00:44:00.118Z,95.89
2016-05-25T00:44:10.134Z,95.6
2016-05-25T00:44:19.978Z,95.7
2016-05-25T00:44:29.978Z,95.41
2016-05-25T00:44:40.165Z,95.7
2016-05-25T00:44:50.149Z,95.6
2016-05-25T00:45:00.152Z,95.51
2016-05-25T00:45:10.152Z,95.51
2016-05-25T00:45:20.152Z,95.6
2016-05-25T00:45:30.168Z,95.41
2016-05-25T00:45:40.027Z,95.51
2016-05-25T00:45:50.184Z,95.6
2016-05-25T00:46:00.030Z,95.7
2016-05-25T00:46:10.202Z,95.41
2016-05-25T00:46:20.046Z,95.51
2016-05-25T00:46:30.218Z,95.51
2016-05-25T00:46:40.312Z,95.32
2016-05-25T00:46:50.202Z,95.51
2016-05-25T00:47:00.690Z,95.6
2016-05-25T00:47:10.205Z,95.6
2016-05-25T00:47:20.221Z,94.93
2016-05-25T00:47:30.221Z,95.7
2016-05-25T00:47:40.221Z,95.32
2016-05-25T00:47:50.237Z,95.12
2016-05-25T00:48:00.224Z,95.12
2016-05-25T00:48:10.240Z,95.12
2016-05-25T00:48:20.240Z,95.32
2016-05-25T00:48:30.255Z,95.12
2016-05-25T00:48:40.255Z,95.32
2016-05-25T00:48:50.255Z,95.12
2016-05-25T00:49:00.273Z,94.93
2016-05-25T00:49:10.273Z,95.12
2016-05-25T00:49:20.273Z,95.03
2016-05-25T00:49:30.273Z,95.12
2016-05-25T00:49:40.273Z,95.51
2016-05-25T00:49:50.288Z,95.22
2016-05-25T00:50:00.307Z,95.32
2016-05-25T00:50:10.151Z,95.32
2016-05-25T00:50:20.307Z,94.74
2016-05-25T00:50:30.151Z,95.32
2016-05-25T00:50:40.323Z,95.32
2016-05-25T00:50:50.323Z,95.32
2016-05-25T00:51:00.325Z,95.12
2016-05-25T00:51:10.325Z,95.12
2016-05-25T00:51:20.325Z,95.03
2016-05-25T00:51:30.340Z,95.03
2016-05-25T00:51:40.340Z,94.93
2016-05-25T00:51:50.340Z,95.12
2016-05-25T00:52:00.343Z,95.32
2016-05-25T00:52:10.359Z,95.12
2016-05-25T00:52:20.359Z,95.03
2016-05-25T00:52:30.359Z,95.32
2016-05-25T00:52:40.359Z,95.22
2016-05-25T00:52:50.359Z,95.32
2016-05-25T00:53:00.378Z,95.22
2016-05-25T00:53:10.378Z,95.22
2016-05-25T00:53:20.378Z,95.22
2016-05-25T00:53:30.393Z,95.22
2016-05-25T00:53:40.409Z,95.12
2016-05-25T00:53:50.393Z,95.22
2016-05-25T00:54:00.395Z,95.12
2016-05-25T00:54:10.411Z,95.22
2016-05-25T00:54:20.255Z,95.22
2016-05-25T00:54:30.411Z,95.32
2016-05-25T00:54:40.411Z,95.22
2016-05-25T00:54:50.426Z,95.32
2016-05-25T00:55:00.430Z,95.03
2016-05-25T00:55:10.274Z,95.51
2016-05-25T00:55:20.446Z,95.22
2016-05-25T00:55:30.446Z,95.03
2016-05-25T00:55:40.446Z,95.03
2016-05-25T00:55:50.446Z,95.22
2016-05-25T00:56:00.464Z,94.93
2016-05-25T00:56:10.464Z,95.22
2016-05-25T00:56:20.464Z,94.84
2016-05-25T00:56:30.464Z,95.03
2016-05-25T00:56:40.479Z,94.84
2016-05-25T00:56:50.479Z,95.32
2016-05-25T00:57:00.481Z,94.93
2016-05-25T00:57:10.497Z,95.22
2016-05-25T00:57:20.497Z,95.32
2016-05-25T00:57:30.497Z,95.32
2016-05-25T00:57:40.497Z,95.51
2016-05-25T00:57:50.497Z,94.56
2016-05-25T00:58:00.516Z,94.56
2016-05-25T00:58:10.516Z,94.93
2016-05-25T00:58:20.516Z,95.22
2016-05-25T00:58:30.531Z,95.12
2016-05-25T00:58:40.547Z,94.84
2016-05-25T00:58:50.531Z,95.32
2016-05-25T00:59:00.534Z,95.7
2016-05-25T00:59:10.534Z,94.65
2016-05-25T00:59:20.550Z,94.84
2016-05-25T00:59:30.550Z,94.65
2016-05-25T00:59:40.394Z,94.84
2016-05-25T00:59:50.550Z,94.93
2016-05-25T01:00:00.568Z,94.93
2016-05-25T01:00:10.568Z,94.84
2016-05-25T01:00:20.568Z,94.93
2016-05-25T01:00:30.428Z,95.22
2016-05-25T01:00:40.428Z,95.03
2016-05-25T01:00:50.584Z,95.32
2016-05-25T01:01:00.602Z,95.22
2016-05-25T01:01:10.617Z,95.51
2016-05-25T01:01:21.024Z,95.22
2016-05-25T01:01:30.758Z,95.03
2016-05-25T01:01:40.914Z,95.32
2016-05-25T01:01:50.633Z,95.12
2016-05-25T01:02:00.511Z,95.12
2016-05-25T01:02:10.620Z,95.22
2016-05-25T01:02:20.620Z,95.12
2016-05-25T01:02:30.636Z,95.22
2016-05-25T01:02:40.480Z,95.22
2016-05-25T01:02:50.636Z,95.12
2016-05-25T01:03:00.639Z,95.32
2016-05-25T01:03:10.655Z,95.22
2016-05-25T01:03:20.655Z,94.74
2016-05-25T01:03:30.655Z,95.32
2016-05-25T01:03:40.670Z,95.32
2016-05-25T01:03:50.670Z,94.93
2016-05-25T01:04:00.672Z,95.32
2016-05-25T01:04:10.672Z,95.12
2016-05-25T01:04:20.688Z,95.22
2016-05-25T01:04:30.688Z,95.12
2016-05-25T01:04:40.688Z,95.03
2016-05-25T01:04:50.703Z,94.93
2016-05-25T01:05:00.706Z,95.32
2016-05-25T01:05:10.706Z,95.12
2016-05-25T01:05:20.706Z,95.32
2016-05-25T01:05:30.722Z,95.32
2016-05-25T01:05:40.722Z,95.32
2016-05-25T01:05:50.722Z,95.32
2016-05-25T01:06:00.724Z,95.41
2016-05-25T01:06:10.740Z,95.03
2016-05-25T01:06:20.740Z,95.41
2016-05-25T01:06:30.740Z,95.12
2016-05-25T01:06:40.755Z,95.12
2016-05-25T01:06:50.599Z,95.12
2016-05-25T01:07:00.758Z,95.32
2016-05-25T01:07:10.774Z,94.93
2016-05-25T01:07:20.758Z,95.03
2016-05-25T01:07:30.774Z,95.22
2016-05-25T01:07:40.774Z,95.03
2016-05-25T01:07:50.790Z,95.32
2016-05-25T01:08:00.793Z,95.32
2016-05-25T01:08:10.777Z,94.93
2016-05-25T01:08:20.808Z,95.22
2016-05-25T01:08:30.793Z,95.22
2016-05-25T01:08:40.793Z,95.22
2016-05-25T01:08:50.808Z,95.22
2016-05-25T01:09:00.655Z,95.12
2016-05-25T01:09:10.827Z,95.12
2016-05-25T01:09:20.827Z,95.22
2016-05-25T01:09:30.842Z,95.12
2016-05-25T01:09:40.671Z,95.12
2016-05-25T01:09:50.842Z,95.12
2016-05-25T01:10:00.845Z,94.74
2016-05-25T01:10:10.845Z,95.22
2016-05-25T01:10:20.845Z,95.41
2016-05-25T01:10:30.861Z,95.41
2016-05-25T01:10:40.861Z,95.32
2016-05-25T01:10:50.877Z,94.93
2016-05-25T01:11:00.863Z,95.22
2016-05-25T01:11:10.879Z,94.84
2016-05-25T01:11:20.879Z,94.84
2016-05-25T01:11:30.879Z,95.03
2016-05-25T01:11:40.879Z,95.12
2016-05-25T01:11:50.879Z,94.93
2016-05-25T01:12:00.897Z,95.03
2016-05-25T01:12:10.897Z,95.12
2016-05-25T01:12:20.741Z,95.22
2016-05-25T01:12:30.897Z,95.22
2016-05-25T01:12:40.757Z,94.93
2016-05-25T01:12:50.757Z,95.03
2016-05-25T01:13:00.931Z,95.03
2016-05-25T01:13:10.931Z,95.22
2016-05-25T01:13:20.931Z,95.22
2016-05-25T01:13:30.931Z,95.22
2016-05-25T01:13:40.806Z,95.32
2016-05-25T01:13:50.946Z,95.12
2016-05-25T01:14:00.793Z,94.93
2016-05-25T01:14:10.949Z,95.22
2016-05-25T01:14:20.965Z,95.03
2016-05-25T01:14:30.965Z,95.12
2016-05-25T01:14:40.965Z,95.12
2016-05-25T01:14:50.965Z,95.41
2016-05-25T01:15:00.983Z,95.03
2016-05-25T01:15:10.983Z,95.03
2016-05-25T01:15:20.983Z,94.56
2016-05-25T01:15:30.983Z,95.32
2016-05-25T01:15:40.999Z,95.32
2016-05-25T01:15:50.999Z,95.32
2016-05-25T01:16:01.001Z,95.32
2016-05-25T01:16:11.345Z,95.32
2016-05-25T01:16:21.017Z,95.32
2016-05-25T01:16:31.017Z,95.32
2016-05-25T01:16:41.032Z,95.22
2016-05-25T01:16:51.017Z,95.22
2016-05-25T01:17:01.254Z,95.51
2016-05-25T01:17:11.035Z,95.51
2016-05-25T01:17:21.035Z,95.22
2016-05-25T01:17:30.879Z,95.51
2016-05-25T01:17:41.067Z,94.65
2016-05-25T01:17:51.051Z,95.6
2016-05-25T01:18:01.054Z,94.84
2016-05-25T01:18:11.070Z,95.7
2016-05-25T01:18:21.070Z,94.84
2016-05-25T01:18:31.070Z,94.65
2016-05-25T01:18:41.070Z,95.7
2016-05-25T01:18:51.101Z,95.7
2016-05-25T01:19:01.088Z,94.65
2016-05-25T01:19:11.088Z,95.6
2016-05-25T01:19:21.088Z,95.12
2016-05-25T01:19:31.088Z,95.12
2016-05-25T01:19:41.104Z,94.65
2016-05-25T01:19:51.104Z,94.56
2016-05-25T01:20:01.121Z,94.74
2016-05-25T01:20:11.121Z,95.12
2016-05-25T01:20:20.965Z,95.12
2016-05-25T01:20:31.121Z,94.74
2016-05-25T01:20:41.121Z,94.46
2016-05-25T01:20:51.137Z,95.12
2016-05-25T01:21:01.140Z,94.37
2016-05-25T01:21:11.140Z,95.12
2016-05-25T01:21:21.156Z,95.12
2016-05-25T01:21:31.156Z,95.12
2016-05-25T01:21:41.156Z,95.12
2016-05-25T01:21:51.156Z,95.12
2016-05-25T01:22:01.174Z,95.22
2016-05-25T01:22:11.174Z,94.37
2016-05-25T01:22:21.174Z,94.37
2016-05-25T01:22:31.018Z,94.37
2016-05-25T01:22:41.174Z,95.12
2016-05-25T01:22:51.190Z,94.27
2016-05-25T01:23:01.192Z,94.37
2016-05-25T01:23:11.192Z,94.46
2016-05-25T01:23:21.208Z,95.12
2016-05-25T01:23:31.208Z,95.12
2016-05-25T01:23:41.223Z,94.56
2016-05-25T01:23:51.067Z,94.37
2016-05-25T01:24:01.226Z,94.46
2016-05-25T01:24:11.226Z,95.12
2016-05-25T01:24:21.226Z,94.37
2016-05-25T01:24:31.257Z,95.51
2016-05-25T01:24:41.289Z,94.46
2016-05-25T01:24:51.257Z,94.56
2016-05-25T01:25:01.260Z,94.46
2016-05-25T01:25:11.260Z,95.22
2016-05-25T01:25:21.260Z,95.32
2016-05-25T01:25:31.260Z,94.46
2016-05-25T01:25:41.260Z,94.46
2016-05-25T01:25:51.260Z,94.65
2016-05-25T01:26:01.278Z,94.65
2016-05-25T01:26:11.137Z,95.22
2016-05-25T01:26:21.294Z,94.56
2016-05-25T01:26:31.294Z,94.56
2016-05-25T01:26:41.294Z,94.56
2016-05-25T01:26:51.294Z,94.56
2016-05-25T01:27:01.298Z,94.46
2016-05-25T01:27:11.313Z,94.84
2016-05-25T01:27:21.313Z,94.93
2016-05-25T01:27:31.329Z,94.84
2016-05-25T01:27:41.329Z,94.84
2016-05-25T01:27:51.173Z,94.74
2016-05-25T01:28:01.362Z,94.74
2016-05-25T01:28:11.331Z,94.65
2016-05-25T01:28:21.347Z,94.46
2016-05-25T01:28:31.190Z,94.74
2016-05-25T01:28:41.347Z,94.65
2016-05-25T01:28:51.347Z,94.84
2016-05-25T01:29:01.365Z,94.74
2016-05-25T01:29:11.365Z,94.74
2016-05-25T01:29:21.365Z,94.74
2016-05-25T01:29:31.365Z,94.37
2016-05-25T01:29:41.381Z,94.93
2016-05-25T01:29:51.381Z,94.74
2016-05-25T01:30:01.383Z,94.74
2016-05-25T01:30:11.383Z,94.46
2016-05-25T01:30:21.398Z,94.93
2016-05-25T01:30:31.398Z,94.46
2016-05-25T01:30:41.398Z,94.93
2016-05-25T01:30:51.414Z,94.37
2016-05-25T01:31:01.417Z,94.84
2016-05-25T01:31:11.667Z,94.74
2016-05-25T01:31:21.948Z,94.84
2016-05-25T01:31:31.589Z,94.56
2016-05-25T01:31:41.870Z,95.03
2016-05-25T01:31:51.276Z,94.37
2016-05-25T01:32:01.436Z,94.93
2016-05-25T01:32:11.451Z,94.84
2016-05-25T01:32:21.451Z,94.93
2016-05-25T01:32:31.467Z,94.84
2016-05-25T01:32:41.467Z,94.65
2016-05-25T01:32:51.311Z,94.37
2016-05-25T01:33:01.469Z,94.56
2016-05-25T01:33:11.469Z,94.46
2016-05-25T01:33:21.485Z,94.46
2016-05-25T01:33:31.328Z,94.65
2016-05-25T01:33:41.500Z,94.84
2016-05-25T01:33:51.485Z,94.84
2016-05-25T01:34:01.347Z,94.65
2016-05-25T01:34:11.503Z,94.93
2016-05-25T01:34:21.503Z,94.56
2016-05-25T01:34:31.519Z,94.46
2016-05-25T01:34:41.519Z,94.93
2016-05-25T01:34:51.519Z,94.84
2016-05-25T01:35:01.366Z,94.93
2016-05-25T01:35:11.522Z,94.74
2016-05-25T01:35:21.537Z,94.74
2016-05-25T01:35:31.537Z,94.74
2016-05-25T01:35:41.537Z,94.65
2016-05-25T01:35:51.397Z,94.74
2016-05-25T01:36:01.539Z,94.93
2016-05-25T01:36:11.555Z,94.84
2016-05-25T01:36:21.555Z,94.93
2016-05-25T01:36:31.571Z,94.84
2016-05-25T01:36:41.571Z,94.65
2016-05-25T01:36:51.571Z,94.74
2016-05-25T01:37:01.589Z,94.37
2016-05-25T01:37:11.589Z,95.03
2016-05-25T01:37:21.589Z,94.74
2016-05-25T01:37:31.589Z,94.37
2016-05-25T01:37:41.589Z,94.74
2016-05-25T01:37:51.621Z,94.84
2016-05-25T01:38:01.607Z,94.56
2016-05-25T01:38:11.607Z,94.93
2016-05-25T01:38:21.607Z,94.93
2016-05-25T01:38:31.466Z,94.65
2016-05-25T01:38:41.623Z,94.84
2016-05-25T01:38:51.623Z,94.65
2016-05-25T01:39:01.641Z,95.32
2016-05-25T01:39:11.641Z,94.46
2016-05-25T01:39:21.641Z,94.65
2016-05-25T01:39:31.641Z,94.46
2016-05-25T01:39:41.657Z,94.74
2016-05-25T01:39:51.657Z,94.56
2016-05-25T01:40:01.661Z,94.93
2016-05-25T01:40:11.661Z,94.37
2016-05-25T01:40:21.676Z,94.84
2016-05-25T01:40:31.676Z,94.65
2016-05-25T01:40:41.692Z,94.65
2016-05-25T01:40:51.676Z,94.65
2016-05-25T01:41:01.694Z,94.74
2016-05-25T01:41:11.694Z,94.93
2016-05-25T01:41:21.694Z,94.84
2016-05-25T01:41:31.710Z,94.65
2016-05-25T01:41:41.710Z,95.03
2016-05-25T01:41:51.553Z,95.22
2016-05-25T01:42:01.713Z,95.32
2016-05-25T01:42:11.728Z,95.22
2016-05-25T01:42:21.728Z,95.22
2016-05-25T01:42:31.728Z,94.37
2016-05-25T01:42:41.744Z,95.03
2016-05-25T01:42:51.744Z,94.56
2016-05-25T01:43:01.605Z,95.22
2016-05-25T01:43:11.746Z,95.22
2016-05-25T01:43:21.762Z,95.12
2016-05-25T01:43:31.762Z,94.65
2016-05-25T01:43:41.777Z,95.51
2016-05-25T01:43:51.621Z,95.22
2016-05-25T01:44:01.780Z,95.22
2016-05-25T01:44:11.780Z,94.84
2016-05-25T01:44:21.624Z,95.51
2016-05-25T01:44:31.780Z,95.03
2016-05-25T01:44:41.796Z,95.32
2016-05-25T01:44:51.796Z,95.12
2016-05-25T01:45:01.799Z,95.22
2016-05-25T01:45:11.799Z,95.32
2016-05-25T01:45:21.814Z,95.12
2016-05-25T01:45:31.814Z,94.74
2016-05-25T01:45:41.814Z,94.93
2016-05-25T01:45:51.814Z,95.32
2016-05-25T01:46:01.676Z,95.41
2016-05-25T01:46:11.691Z,95.03
2016-05-25T01:46:21.988Z,95.03
2016-05-25T01:46:32.363Z,94.93
2016-05-25T01:46:41.848Z,95.32
2016-05-25T01:46:52.066Z,95.32
2016-05-25T01:47:01.929Z,95.03
2016-05-25T01:47:11.866Z,95.32
2016-05-25T01:47:21.866Z,95.03
2016-05-25T01:47:31.866Z,95.32
2016-05-25T01:47:41.882Z,95.32
2016-05-25T01:47:51.882Z,95.32
2016-05-25T01:48:01.885Z,95.41
2016-05-25T01:48:11.885Z,95.03
2016-05-25T01:48:21.885Z,95.32
2016-05-25T01:48:31.885Z,95.12
2016-05-25T01:48:41.916Z,94.84
2016-05-25T01:48:51.901Z,95.22
2016-05-25T01:49:01.904Z,94.65
2016-05-25T01:49:11.919Z,94.74
2016-05-25T01:49:21.919Z,95.32
2016-05-25T01:49:31.935Z,95.03
2016-05-25T01:49:41.919Z,95.22
2016-05-25T01:49:51.935Z,95.32
2016-05-25T01:50:01.937Z,95.32
2016-05-25T01:50:11.937Z,95.22
2016-05-25T01:50:21.952Z,95.22
2016-05-25T01:50:31.796Z,95.32
2016-05-25T01:50:41.952Z,95.32
2016-05-25T01:50:51.952Z,95.32
2016-05-25T01:51:01.954Z,95.12
2016-05-25T01:51:11.970Z,95.32
2016-05-25T01:51:21.970Z,95.22
2016-05-25T01:51:31.970Z,94.84
2016-05-25T01:51:41.986Z,95.32
2016-05-25T01:51:51.986Z,95.51
2016-05-25T01:52:01.990Z,95.51
2016-05-25T01:52:11.990Z,95.32
2016-05-25T01:52:21.849Z,95.51
2016-05-25T01:52:32.005Z,95.32
2016-05-25T01:52:41.865Z,95.51
2016-05-25T01:52:52.005Z,95.12
2016-05-25T01:53:02.007Z,95.41
2016-05-25T01:53:12.023Z,95.32
2016-05-25T01:53:22.039Z,95.32
2016-05-25T01:53:32.023Z,95.12
2016-05-25T01:53:42.039Z,95.32
2016-05-25T01:53:52.039Z,95.32
2016-05-25T01:54:02.042Z,95.32
2016-05-25T01:54:12.057Z,95.03
2016-05-25T01:54:22.057Z,95.03
2016-05-25T01:54:32.057Z,94.93
2016-05-25T01:54:42.057Z,95.32
2016-05-25T01:54:52.073Z,95.03
2016-05-25T01:55:02.090Z,95.32
2016-05-25T01:55:12.090Z,95.6
2016-05-25T01:55:22.075Z,95.32
2016-05-25T01:55:32.090Z,95.6
2016-05-25T01:55:42.090Z,95.51
2016-05-25T01:55:52.090Z,95.51
2016-05-25T01:56:02.109Z,95.51
2016-05-25T01:56:12.109Z,95.51
2016-05-25T01:56:22.109Z,95.51
2016-05-25T01:56:32.109Z,95.89
2016-05-25T01:56:42.109Z,95.51
2016-05-25T01:56:52.125Z,95.6
2016-05-25T01:57:02.128Z,95.7
2016-05-25T01:57:12.143Z,95.22
2016-05-25T01:57:22.128Z,95.51
2016-05-25T01:57:32.143Z,95.22
2016-05-25T01:57:42.159Z,95.22
2016-05-25T01:57:52.143Z,95.6
2016-05-25T01:58:02.161Z,95.32
2016-05-25T01:58:12.177Z,95.22
2016-05-25T01:58:22.161Z,95.32
2016-05-25T01:58:32.161Z,95.6
2016-05-25T01:58:42.020Z,95.51
2016-05-25T01:58:52.020Z,95.51
2016-05-25T01:59:02.195Z,95.41
2016-05-25T01:59:12.180Z,95.6
2016-05-25T01:59:22.195Z,95.6
2016-05-25T01:59:32.195Z,95.51
2016-05-25T01:59:42.039Z,95.22
2016-05-25T01:59:52.211Z,95.79
2016-05-25T02:00:02.198Z,95.22
2016-05-25T02:00:12.214Z,95.6
2016-05-25T02:00:22.214Z,95.32
2016-05-25T02:00:32.214Z,95.32
2016-05-25T02:00:42.229Z,95.6
2016-05-25T02:00:52.229Z,95.51
2016-05-25T02:01:02.232Z,95.51
2016-05-25T02:01:12.092Z,95.41
2016-05-25T02:01:22.420Z,95.6
2016-05-25T02:01:32.248Z,95.41
2016-05-25T02:01:42.107Z,95.51
2016-05-25T02:01:52.264Z,95.79
2016-05-25T02:02:02.298Z,95.6
2016-05-25T02:02:12.267Z,95.7
2016-05-25T02:02:22.267Z,95.6
2016-05-25T02:02:32.282Z,95.7
2016-05-25T02:02:42.282Z,95.41
2016-05-25T02:02:52.282Z,95.6
2016-05-25T02:03:02.144Z,95.6
2016-05-25T02:03:12.300Z,95.7
2016-05-25T02:03:22.300Z,95.6
2016-05-25T02:03:32.300Z,95.79
2016-05-25T02:03:42.300Z,95.79
2016-05-25T02:03:52.316Z,95.7
2016-05-25T02:04:02.319Z,95.51
2016-05-25T02:04:12.319Z,95.6
2016-05-25T02:04:22.334Z,95.6
2016-05-25T02:04:32.178Z,95.6
2016-05-25T02:04:42.178Z,95.6
2016-05-25T02:04:52.334Z,95.7
2016-05-25T02:05:02.352Z,95.6
2016-05-25T02:05:12.352Z,95.51
2016-05-25T02:05:22.367Z,95.51
2016-05-25T02:05:32.352Z,95.41
2016-05-25T02:05:42.367Z,95.51
2016-05-25T02:05:52.367Z,95.51
2016-05-25T02:06:02.370Z,95.51
2016-05-25T02:06:12.370Z,95.51
2016-05-25T02:06:22.386Z,95.51
2016-05-25T02:06:32.386Z,95.41
2016-05-25T02:06:42.386Z,95.41
2016-05-25T02:06:52.386Z,95.6
2016-05-25T02:07:02.405Z,95.51
2016-05-25T02:07:12.405Z,95.51
2016-05-25T02:07:22.420Z,95.6
2016-05-25T02:07:32.420Z,95.6
2016-05-25T02:07:42.420Z,95.51
2016-05-25T02:07:52.264Z,95.79
2016-05-25T02:08:02.422Z,95.51
2016-05-25T02:08:12.438Z,95.51
2016-05-25T02:08:22.282Z,95.51
2016-05-25T02:08:32.438Z,95.6
2016-05-25T02:08:42.454Z,95.51
2016-05-25T02:08:52.454Z,95.7
2016-05-25T02:09:02.457Z,95.51
2016-05-25T02:09:12.457Z,95.7
2016-05-25T02:09:22.457Z,95.51